createdAt,value
2022-12-18T00:00:31.960Z,-18.56
2022-12-18T00:03:39.239Z,-18.53
2022-12-18T00:06:43.955Z,-18.49
2022-12-18T00:09:49.010Z,-18.48
2022-12-18T00:12:52.603Z,-18.44
2022-12-18T00:15:56.797Z,-18.44
2022-12-18T00:19:01.502Z,-18.44
2022-12-18T00:22:05.807Z,-18.48
2022-12-18T00:25:09.545Z,-18.53
2022-12-18T00:28:13.523Z,-18.57
2022-12-18T00:31:20.380Z,-18.55
2022-12-18T00:34:23.777Z,-18.46
2022-12-18T00:37:29.494Z,-18.39
2022-12-18T00:40:35.234Z,-18.31
2022-12-18T00:43:41.347Z,-18.21
2022-12-18T00:46:47.113Z,-18.17
2022-12-18T00:49:52.240Z,-18.15
2022-12-18T00:53:02.034Z,-18.10
2022-12-18T00:56:07.447Z,-18.04
2022-12-18T00:59:10.833Z,-18.00
2022-12-18T01:02:15.754Z,-17.98
2022-12-18T01:05:19.385Z,-17.98
2022-12-18T01:08:23.322Z,-17.96
2022-12-18T01:11:28.482Z,-17.93
2022-12-18T01:14:33.253Z,-17.89
2022-12-18T01:17:37.013Z,-17.87
2022-12-18T01:20:40.621Z,-17.91
2022-12-18T01:23:47.287Z,-17.97
2022-12-18T01:26:50.986Z,-18.01
2022-12-18T01:29:55.140Z,-18.07
2022-12-18T01:32:59.448Z,-18.01
2022-12-18T01:36:03.188Z,-18.03
2022-12-18T01:39:13.898Z,-17.93
2022-12-18T01:42:19.066Z,-17.91
2022-12-18T01:45:29.575Z,-17.89
2022-12-18T01:48:33.296Z,-17.82
2022-12-18T01:51:37.233Z,-17.70
2022-12-18T01:54:41.493Z,-17.65
2022-12-18T01:57:45.430Z,-17.52
2022-12-18T02:00:48.802Z,-17.41
2022-12-18T02:03:52.499Z,-17.31
2022-12-18T02:07:07.504Z,-17.23
2022-12-18T02:10:25.613Z,-17.11
2022-12-18T02:13:38.187Z,-17.02
2022-12-18T02:17:04.997Z,-16.99
2022-12-18T02:20:46.770Z,-16.99
2022-12-18T02:23:58.822Z,-17.11
2022-12-18T02:27:07.025Z,-17.39
2022-12-18T02:30:10.817Z,-17.54
2022-12-18T02:33:16.329Z,-17.62
2022-12-18T02:36:23.509Z,-17.44
2022-12-18T02:39:32.124Z,-17.28
2022-12-18T02:42:40.127Z,-17.06
2022-12-18T02:45:56.013Z,-16.90
2022-12-18T02:49:29.268Z,-16.86
2022-12-18T02:53:04.175Z,-16.72
2022-12-18T02:56:25.790Z,-16.90
2022-12-18T02:59:58.633Z,-16.83
2022-12-18T03:03:20.545Z,-16.72
2022-12-18T03:06:35.589Z,-16.62
2022-12-18T03:09:42.963Z,-16.46
2022-12-18T03:12:53.876Z,-16.49
2022-12-18T03:16:00.251Z,-16.44
2022-12-18T03:19:11.943Z,-16.18
2022-12-18T03:22:18.965Z,-15.96
2022-12-18T03:25:29.038Z,-15.74
2022-12-18T03:28:35.505Z,-15.53
2022-12-18T03:31:44.403Z,-15.36
2022-12-18T03:34:52.356Z,-15.23
2022-12-18T03:37:58.623Z,-15.12
2022-12-18T03:41:24.946Z,-15.07
2022-12-18T03:44:49.194Z,-14.98
2022-12-18T03:47:59.820Z,-14.88
2022-12-18T03:51:38.684Z,-14.79
2022-12-18T03:54:44.566Z,-14.75
2022-12-18T03:57:52.951Z,-14.74
2022-12-18T04:01:01.703Z,-14.74
2022-12-18T04:04:08.717Z,-14.71
2022-12-18T04:07:16.339Z,-14.74
2022-12-18T04:10:22.745Z,-14.74
2022-12-18T04:13:34.026Z,-14.65
2022-12-18T04:16:41.189Z,-14.60
2022-12-18T04:19:47.619Z,-14.61
2022-12-18T04:22:51.785Z,-14.60
2022-12-18T04:25:56.845Z,-14.65
2022-12-18T04:29:16.637Z,-14.65
2022-12-18T04:32:20.108Z,-14.57
2022-12-18T04:35:24.644Z,-14.50
2022-12-18T04:38:28.438Z,-14.46
2022-12-18T04:41:39.892Z,-14.43
2022-12-18T04:44:43.282Z,-14.28
2022-12-18T04:47:46.195Z,-14.18
2022-12-18T04:50:49.940Z,-14.10
2022-12-18T04:53:53.623Z,-14.03
2022-12-18T04:56:57.734Z,-14.20
2022-12-18T05:00:00.677Z,-14.34
2022-12-18T05:03:04.262Z,-14.39
2022-12-18T05:06:08.407Z,-14.43
2022-12-18T05:09:11.753Z,-14.32
2022-12-18T05:12:14.711Z,-14.41
2022-12-18T05:15:18.101Z,-14.43
2022-12-18T05:18:22.343Z,-14.40
2022-12-18T05:21:26.111Z,-14.32
2022-12-18T05:24:29.172Z,-14.51
2022-12-18T05:27:34.434Z,-14.64
2022-12-18T05:30:38.112Z,-14.63
2022-12-18T05:33:42.355Z,-14.54
2022-12-18T05:36:46.175Z,-14.53
2022-12-18T05:39:49.866Z,-14.39
2022-12-18T05:42:53.314Z,-14.18
2022-12-18T05:45:58.460Z,-13.99
2022-12-18T05:49:05.084Z,-14.01
2022-12-18T05:52:08.122Z,-14.05
2022-12-18T05:55:11.349Z,-13.85
2022-12-18T05:58:21.939Z,-13.74
2022-12-18T06:01:28.312Z,-13.68
2022-12-18T06:04:31.353Z,-13.75
2022-12-18T06:07:34.462Z,-13.71
2022-12-18T06:10:37.662Z,-13.70
2022-12-18T06:13:41.655Z,-13.70
2022-12-18T06:16:45.369Z,-13.70
2022-12-18T06:19:48.956Z,-13.70
2022-12-18T06:22:53.028Z,-13.78
2022-12-18T06:25:57.545Z,-13.81
2022-12-18T06:29:01.561Z,-13.75
2022-12-18T06:32:06.492Z,-13.79
2022-12-18T06:35:11.637Z,-13.75
2022-12-18T06:38:15.585Z,-13.77
2022-12-18T06:41:22.423Z,-13.72
2022-12-18T06:44:25.635Z,-13.79
2022-12-18T06:47:28.901Z,-13.72
2022-12-18T06:50:31.929Z,-13.74
2022-12-18T06:53:35.532Z,-13.67
2022-12-18T06:56:38.616Z,-13.68
2022-12-18T06:59:42.594Z,-13.63
2022-12-18T07:02:45.617Z,-13.61
2022-12-18T07:05:49.432Z,-13.60
2022-12-18T07:08:53.810Z,-13.60
2022-12-18T07:11:57.914Z,-13.68
2022-12-18T07:15:01.457Z,-13.77
2022-12-18T07:18:05.150Z,-13.83
2022-12-18T07:21:10.252Z,-13.93
2022-12-18T07:24:13.504Z,-14.10
2022-12-18T07:27:17.154Z,-14.30
2022-12-18T07:30:20.722Z,-14.40
2022-12-18T07:33:24.475Z,-14.40
2022-12-18T07:36:28.299Z,-14.44
2022-12-18T07:39:31.590Z,-14.60
2022-12-18T07:42:36.270Z,-14.71
2022-12-18T07:45:40.187Z,-14.75
2022-12-18T07:48:45.234Z,-14.91
2022-12-18T07:51:52.235Z,-15.02
2022-12-18T07:54:55.541Z,-15.19
2022-12-18T07:58:01.993Z,-15.28
2022-12-18T08:01:10.184Z,-15.47
2022-12-18T08:04:15.714Z,-15.64
2022-12-18T08:07:18.785Z,-15.71
2022-12-18T08:10:22.905Z,-15.79
2022-12-18T08:13:26.713Z,-15.86
2022-12-18T08:16:30.055Z,-15.95
2022-12-18T08:19:34.581Z,-16.03
2022-12-18T08:22:39.203Z,-16.06
2022-12-18T08:25:42.676Z,-16.14
2022-12-18T08:28:45.834Z,-16.20
2022-12-18T08:31:49.850Z,-16.33
2022-12-18T08:34:53.341Z,-16.42
2022-12-18T08:37:56.972Z,-16.52
2022-12-18T08:41:13.229Z,-16.61
2022-12-18T08:44:34.718Z,-16.79
2022-12-18T08:47:38.910Z,-16.78
2022-12-18T08:50:42.027Z,-16.71
2022-12-18T08:53:46.601Z,-16.71
2022-12-18T08:56:49.658Z,-16.75
2022-12-18T08:59:52.932Z,-16.73
2022-12-18T09:02:56.129Z,-16.86
2022-12-18T09:05:59.696Z,-16.86
2022-12-18T09:09:03.144Z,-16.93
2022-12-18T09:12:06.512Z,-17.00
2022-12-18T09:15:09.919Z,-17.10
2022-12-18T09:18:14.697Z,-17.10
2022-12-18T09:21:21.378Z,-17.13
2022-12-18T09:24:24.399Z,-17.13
2022-12-18T09:27:28.060Z,-17.14
2022-12-18T09:30:31.983Z,-17.04
2022-12-18T09:33:39.101Z,-17.02
2022-12-18T09:36:43.383Z,-17.09
2022-12-18T09:39:47.562Z,-17.14
2022-12-18T09:42:57.664Z,-17.20
2022-12-18T09:46:06.482Z,-17.30
2022-12-18T09:49:16.252Z,-17.35
2022-12-18T09:52:36.026Z,-17.38
2022-12-18T09:55:43.854Z,-17.39
2022-12-18T09:59:00.717Z,-17.55
2022-12-18T10:02:24.135Z,-17.59
2022-12-18T10:05:56.643Z,-17.69
2022-12-18T10:09:11.890Z,-17.75
2022-12-18T10:12:25.462Z,-17.67
2022-12-18T10:15:46.343Z,-17.63
2022-12-18T10:19:24.327Z,-17.58
2022-12-18T10:22:37.873Z,-17.75
2022-12-18T10:25:47.530Z,-17.77
2022-12-18T10:28:51.925Z,-17.75
2022-12-18T10:31:56.238Z,-17.75
2022-12-18T10:35:01.132Z,-17.72
2022-12-18T10:38:14.243Z,-17.73
2022-12-18T10:41:21.720Z,-17.70
2022-12-18T10:44:29.167Z,-17.62
2022-12-18T10:47:36.196Z,-17.59
2022-12-18T10:54:08.162Z,-17.58
2022-12-18T10:57:29.198Z,-17.63
2022-12-18T11:00:33.256Z,-17.62
2022-12-18T11:03:43.954Z,-17.55
2022-12-18T11:07:07.446Z,-17.61
2022-12-18T11:10:20.819Z,-17.62
2022-12-18T11:13:27.659Z,-17.59
2022-12-18T11:16:38.821Z,-17.66
2022-12-18T11:19:43.552Z,-17.76
2022-12-18T11:23:00.758Z,-17.69
2022-12-18T11:26:08.078Z,-17.69
2022-12-18T11:29:18.897Z,-17.72
2022-12-18T11:32:27.559Z,-17.80
2022-12-18T11:35:57.054Z,-17.83
2022-12-18T11:39:17.726Z,-17.97
2022-12-18T11:42:53.200Z,-18.17
2022-12-18T11:46:19.974Z,-18.35
2022-12-18T11:49:38.191Z,-18.45
2022-12-18T11:52:43.083Z,-18.48
2022-12-18T11:55:58.220Z,-18.57
2022-12-18T11:59:27.721Z,-18.74
2022-12-18T12:02:47.884Z,-18.88
2022-12-18T12:06:13.589Z,-18.98
2022-12-18T12:09:44.767Z,-19.12
2022-12-18T12:13:15.013Z,-19.10
2022-12-18T12:20:36.567Z,-19.19
2022-12-18T12:23:45.853Z,-19.29
2022-12-18T12:27:35.455Z,-19.23
2022-12-18T12:31:06.502Z,-19.36
2022-12-18T12:34:57.642Z,-19.48
2022-12-18T12:38:15.806Z,-19.60
2022-12-18T12:41:44.160Z,-19.53
2022-12-18T12:44:57.360Z,-19.62
2022-12-18T12:48:04.105Z,-19.65
2022-12-18T12:51:25.710Z,-19.59
2022-12-18T12:54:30.627Z,-19.60
2022-12-18T12:57:39.628Z,-19.70
2022-12-18T13:01:03.378Z,-19.70
2022-12-18T13:04:25.636Z,-19.66
2022-12-18T13:07:41.695Z,-19.74
2022-12-18T13:10:46.787Z,-19.69
2022-12-18T13:13:52.864Z,-19.66
2022-12-18T13:17:31.023Z,-19.63
2022-12-18T13:20:40.327Z,-19.63
2022-12-18T13:23:44.270Z,-19.67
2022-12-18T13:26:47.813Z,-19.73
2022-12-18T13:29:54.154Z,-19.69
2022-12-18T13:33:15.561Z,-19.73
2022-12-18T13:36:30.065Z,-19.74
2022-12-18T13:39:35.919Z,-19.76
2022-12-18T13:43:00.328Z,-19.76
2022-12-18T13:46:06.887Z,-19.74
2022-12-18T13:49:16.951Z,-19.73
2022-12-18T13:52:24.484Z,-19.71
2022-12-18T13:55:28.844Z,-19.69
2022-12-18T13:58:32.482Z,-19.70
2022-12-18T14:01:37.044Z,-19.74
2022-12-18T14:04:45.137Z,-19.63
2022-12-18T14:07:57.249Z,-19.53
2022-12-18T14:11:07.600Z,-19.45
2022-12-18T14:14:21.858Z,-19.39
2022-12-18T14:17:33.455Z,-19.31
2022-12-18T14:21:08.486Z,-19.28
2022-12-18T14:24:25.612Z,-19.28
2022-12-18T14:27:35.671Z,-19.28
2022-12-18T14:30:49.818Z,-19.42
2022-12-18T14:33:58.235Z,-19.43
2022-12-18T14:37:10.034Z,-19.42
2022-12-18T14:40:16.582Z,-19.40
2022-12-18T14:43:20.430Z,-19.40
2022-12-18T14:46:42.377Z,-19.38
2022-12-18T14:49:54.766Z,-19.38
2022-12-18T14:53:06.658Z,-19.36
2022-12-18T14:56:29.263Z,-19.29
2022-12-18T14:59:41.106Z,-19.21
2022-12-18T15:02:59.363Z,-19.16
2022-12-18T15:06:46.888Z,-19.21
2022-12-18T15:10:07.076Z,-19.26
2022-12-18T15:13:28.395Z,-19.38
2022-12-18T15:16:42.214Z,-19.35
2022-12-18T15:19:56.191Z,-19.31
2022-12-18T15:23:09.530Z,-19.21
2022-12-18T15:26:20.291Z,-19.19
2022-12-18T15:29:32.411Z,-19.29
2022-12-18T15:32:48.405Z,-19.49
2022-12-18T15:36:08.992Z,-19.52
2022-12-18T15:39:16.303Z,-19.50
2022-12-18T15:42:43.956Z,-19.67
2022-12-18T15:45:56.738Z,-19.66
2022-12-18T15:49:08.164Z,-19.65
2022-12-18T15:52:17.370Z,-19.62
2022-12-18T15:55:43.210Z,-19.65
2022-12-18T15:58:47.556Z,-19.70
2022-12-18T16:01:57.712Z,-19.77
2022-12-18T16:05:01.995Z,-19.86
2022-12-18T16:08:06.341Z,-19.93
2022-12-18T16:11:39.736Z,-19.94
2022-12-18T16:14:43.847Z,-19.98
2022-12-18T16:17:49.374Z,-20.02
2022-12-18T16:20:53.310Z,-20.05
2022-12-18T16:23:57.574Z,-20.08
2022-12-18T16:27:04.030Z,-20.08
2022-12-18T16:30:16.230Z,-20.15
2022-12-18T16:33:22.895Z,-20.19
2022-12-18T16:36:27.703Z,-20.29
2022-12-18T16:39:35.271Z,-20.35
2022-12-18T16:42:42.935Z,-20.47
2022-12-18T16:45:49.093Z,-20.52
2022-12-18T16:48:55.775Z,-20.60
2022-12-18T16:52:01.815Z,-20.68
2022-12-18T16:55:06.278Z,-20.77
2022-12-18T16:58:10.825Z,-20.84
2022-12-18T17:01:14.423Z,-20.96
2022-12-18T17:04:18.602Z,-21.02
2022-12-18T17:07:22.661Z,-21.26
2022-12-18T17:10:28.896Z,-21.61
2022-12-18T17:13:35.665Z,-21.61
2022-12-18T17:16:41.844Z,-21.63
2022-12-18T17:19:46.581Z,-21.64
2022-12-18T17:22:50.568Z,-21.63
2022-12-18T17:26:00.369Z,-21.60
2022-12-18T17:29:05.655Z,-21.58
2022-12-18T17:32:10.716Z,-21.60
2022-12-18T17:35:14.728Z,-21.53
2022-12-18T17:38:18.791Z,-21.50
2022-12-18T17:41:23.067Z,-21.49
2022-12-18T17:44:27.721Z,-21.49
2022-12-18T17:47:32.001Z,-21.40
2022-12-18T17:50:36.915Z,-21.33
2022-12-18T17:53:42.427Z,-21.26
2022-12-18T17:56:48.235Z,-21.25
2022-12-18T17:59:53.696Z,-21.22
2022-12-18T18:03:00.011Z,-21.18
2022-12-18T18:06:06.046Z,-21.23
2022-12-18T18:09:15.934Z,-21.33
2022-12-18T18:12:40.201Z,-21.39
2022-12-18T18:15:44.702Z,-21.42
2022-12-18T18:18:49.869Z,-21.40
2022-12-18T18:21:55.291Z,-21.44
2022-12-18T18:25:01.234Z,-21.42
2022-12-18T18:28:06.173Z,-21.51
2022-12-18T18:31:12.201Z,-21.47
2022-12-18T18:34:18.836Z,-21.44
2022-12-18T18:37:23.199Z,-21.49
2022-12-18T18:40:28.639Z,-21.50
2022-12-18T18:43:34.435Z,-21.44
2022-12-18T18:46:40.435Z,-21.43
2022-12-18T18:49:47.122Z,-21.49
2022-12-18T18:52:52.925Z,-21.53
2022-12-18T18:56:40.825Z,-21.57
2022-12-18T18:59:31.940Z,-21.58
2022-12-18T19:02:37.034Z,-21.58
2022-12-18T19:05:44.458Z,-21.55
2022-12-18T19:08:54.060Z,-21.53
2022-12-18T19:12:17.787Z,-21.57
2022-12-18T19:15:22.779Z,-21.55
2022-12-18T19:18:28.137Z,-21.53
2022-12-18T19:21:34.365Z,-21.65
2022-12-18T19:24:40.877Z,-21.70
2022-12-18T19:27:44.814Z,-21.79
2022-12-18T19:30:49.819Z,-21.79
2022-12-18T19:33:54.602Z,-21.92
2022-12-18T19:37:00.227Z,-21.96
2022-12-18T19:40:12.346Z,-22.01
2022-12-18T19:43:18.274Z,-21.96
2022-12-18T19:46:30.379Z,-21.99
2022-12-18T19:49:44.044Z,-21.95
2022-12-18T19:52:49.918Z,-21.95
2022-12-18T19:55:53.867Z,-21.98
2022-12-18T19:59:02.715Z,-22.02
2022-12-18T20:02:11.371Z,-21.99
2022-12-18T20:05:19.726Z,-21.99
2022-12-18T20:08:28.983Z,-21.96
2022-12-18T20:11:41.773Z,-21.89
2022-12-18T20:14:46.494Z,-21.85
2022-12-18T20:17:50.407Z,-21.79
2022-12-18T20:20:55.200Z,-21.78
2022-12-18T20:24:02.012Z,-21.74
2022-12-18T20:27:07.704Z,-21.70
2022-12-18T20:30:14.250Z,-21.64
2022-12-18T20:33:17.625Z,-21.68
2022-12-18T20:36:26.932Z,-21.60
2022-12-18T20:39:30.922Z,-21.55
2022-12-18T20:42:34.719Z,-21.60
2022-12-18T20:45:39.412Z,-21.51
2022-12-18T20:48:46.167Z,-21.47
2022-12-18T20:51:54.337Z,-21.49
2022-12-18T20:54:58.840Z,-21.50
2022-12-18T20:58:03.941Z,-21.46
2022-12-18T21:01:10.737Z,-21.46
2022-12-18T21:04:14.027Z,-21.46
2022-12-18T21:07:18.473Z,-21.49
2022-12-18T21:10:22.243Z,-21.44
2022-12-18T21:13:26.224Z,-21.49
2022-12-18T21:16:32.516Z,-21.53
2022-12-18T21:19:36.313Z,-21.54
2022-12-18T21:22:40.613Z,-21.49
2022-12-18T21:25:43.670Z,-21.51
2022-12-18T21:28:47.449Z,-21.55
2022-12-18T21:31:53.154Z,-21.57
2022-12-18T21:34:56.873Z,-21.67
2022-12-18T21:37:59.930Z,-21.65
2022-12-18T21:41:08.727Z,-21.70
2022-12-18T21:44:14.652Z,-21.75
2022-12-18T21:47:22.843Z,-21.75
2022-12-18T21:50:27.119Z,-21.79
2022-12-18T21:53:30.949Z,-21.77
2022-12-18T21:57:05.236Z,-21.81
2022-12-18T22:00:19.107Z,-21.88
2022-12-18T22:03:23.719Z,-21.92
2022-12-18T22:06:27.908Z,-21.93
2022-12-18T22:09:32.804Z,-22.05
2022-12-18T22:12:42.942Z,-22.08
2022-12-18T22:15:48.397Z,-22.12
2022-12-18T22:18:52.513Z,-22.14
2022-12-18T22:21:55.919Z,-22.16
2022-12-18T22:24:59.989Z,-22.14
2022-12-18T22:28:21.674Z,-22.10
2022-12-18T22:31:25.470Z,-22.03
2022-12-18T22:34:28.829Z,-21.96
2022-12-18T22:37:32.980Z,-21.85
2022-12-18T22:40:39.003Z,-21.79
2022-12-18T22:43:43.517Z,-21.71
2022-12-18T22:46:52.316Z,-21.64
2022-12-18T22:50:07.471Z,-21.54
2022-12-18T22:53:11.289Z,-21.43
2022-12-18T22:56:20.235Z,-21.27
2022-12-18T22:59:25.049Z,-21.19
2022-12-18T23:02:28.568Z,-21.09
2022-12-18T23:05:32.789Z,-21.02
2022-12-18T23:08:37.550Z,-21.06
2022-12-18T23:11:40.566Z,-21.04
2022-12-18T23:14:45.029Z,-20.98
2022-12-18T23:17:48.711Z,-20.96
2022-12-18T23:20:53.110Z,-20.94
2022-12-18T23:23:57.708Z,-20.92
2022-12-18T23:27:01.441Z,-21.06
2022-12-18T23:30:08.414Z,-21.11
2022-12-18T23:33:12.068Z,-21.04
2022-12-18T23:36:16.456Z,-20.99
2022-12-18T23:39:28.758Z,-20.95
2022-12-18T23:42:32.242Z,-20.89
2022-12-18T23:45:39.105Z,-20.94
2022-12-18T23:48:43.178Z,-20.95
2022-12-18T23:51:46.426Z,-21.08
2022-12-18T23:54:50.381Z,-21.19
2022-12-18T23:57:53.629Z,-21.26
